createdAt,value
2018-03-03T00:02:18.453Z,13.30
2018-03-03T00:04:45.835Z,13.63
2018-03-03T00:07:13.216Z,13.73
2018-03-03T00:09:40.573Z,13.53
2018-03-03T00:12:08.006Z,13.00
2018-03-03T00:14:35.519Z,13.27
2018-03-03T00:17:03.146Z,12.63
2018-03-03T00:19:30.532Z,13.03
2018-03-03T00:21:57.949Z,13.07
2018-03-03T00:24:25.458Z,11.70
2018-03-03T00:26:52.869Z,12.40
2018-03-03T00:29:20.227Z,11.43
2018-03-03T00:31:47.617Z,11.77
2018-03-03T00:34:14.966Z,12.17
2018-03-03T00:36:42.362Z,11.67
2018-03-03T00:39:09.720Z,11.70
2018-03-03T00:41:37.417Z,11.47
2018-03-03T00:44:04.772Z,11.17
2018-03-03T00:46:32.128Z,11.10
2018-03-03T00:48:59.569Z,11.23
2018-03-03T00:51:27.009Z,10.57
2018-03-03T00:53:54.473Z,11.23
2018-03-03T00:56:21.869Z,10.70
2018-03-03T00:58:49.371Z,10.07
2018-03-03T01:01:16.747Z,10.27
2018-03-03T01:03:44.107Z,10.40
2018-03-03T01:06:11.516Z,10.50
2018-03-03T01:08:38.925Z,10.00
2018-03-03T01:11:06.418Z,9.93
2018-03-03T01:13:33.806Z,9.47
2018-03-03T01:16:01.354Z,9.70
2018-03-03T01:18:28.761Z,9.27
2018-03-03T01:20:56.384Z,9.47
2018-03-03T01:23:23.785Z,9.67
2018-03-03T01:25:51.157Z,9.30
2018-03-03T01:28:18.550Z,9.37
2018-03-03T01:30:45.890Z,9.10
2018-03-03T01:33:13.271Z,8.90
2018-03-03T01:35:40.618Z,9.50
2018-03-03T01:38:08.162Z,9.07
2018-03-03T01:40:35.513Z,8.80
2018-03-03T01:43:03.050Z,9.23
2018-03-03T01:45:30.549Z,9.17
2018-03-03T01:47:57.957Z,8.87
2018-03-03T01:50:25.409Z,9.43
2018-03-03T01:52:52.801Z,9.17
2018-03-03T01:55:20.185Z,9.00
2018-03-03T01:57:47.528Z,8.83
2018-03-03T02:00:14.897Z,8.87
2018-03-03T02:02:42.239Z,8.60
2018-03-03T02:07:42.317Z,8.67
2018-03-03T02:10:09.689Z,8.40
2018-03-03T02:12:37.064Z,8.37
2018-03-03T02:15:04.406Z,7.93
2018-03-03T02:17:31.742Z,8.60
2018-03-03T02:19:59.128Z,7.73
2018-03-03T02:22:26.483Z,7.80
2018-03-03T02:24:53.829Z,7.80
2018-03-03T02:27:21.161Z,7.80
2018-03-03T02:29:48.529Z,8.23
2018-03-03T02:32:15.899Z,7.77
2018-03-03T02:34:43.237Z,7.63
2018-03-03T02:37:10.565Z,7.20
2018-03-03T02:39:37.910Z,7.00
2018-03-03T02:42:05.278Z,7.43
2018-03-03T02:44:32.668Z,6.97
2018-03-03T02:47:00.037Z,6.50
2018-03-03T02:49:27.417Z,6.20
2018-03-03T02:51:54.757Z,5.70
2018-03-03T02:54:22.093Z,5.70
2018-03-03T02:56:49.483Z,6.03
2018-03-03T02:59:16.810Z,5.83
2018-03-03T03:01:44.190Z,5.67
2018-03-03T03:04:11.526Z,5.83
2018-03-03T03:06:38.943Z,5.83
2018-03-03T03:09:06.281Z,5.47
2018-03-03T03:11:33.606Z,5.50
2018-03-03T03:14:00.976Z,5.00
2018-03-03T03:16:28.388Z,5.23
2018-03-03T03:18:55.822Z,4.93
2018-03-03T03:21:23.157Z,5.07
2018-03-03T03:23:50.537Z,5.03
2018-03-03T03:26:17.873Z,4.60
2018-03-03T03:28:45.246Z,4.80
2018-03-03T03:33:45.956Z,4.67
2018-03-03T03:36:13.294Z,4.90
2018-03-03T03:38:40.640Z,4.20
2018-03-03T03:41:07.983Z,4.60
2018-03-03T03:43:35.320Z,4.70
2018-03-03T03:46:02.661Z,4.60
2018-03-03T03:48:30.041Z,3.90
2018-03-03T03:50:57.467Z,3.90
2018-03-03T03:53:24.841Z,3.93
2018-03-03T03:55:52.195Z,3.50
2018-03-03T03:58:19.540Z,3.77
2018-03-03T04:00:46.923Z,3.60
2018-03-03T04:03:14.257Z,3.30
2018-03-03T04:05:41.605Z,3.60
2018-03-03T04:08:08.952Z,3.40
2018-03-03T04:10:36.287Z,3.00
2018-03-03T04:13:03.629Z,3.20
2018-03-03T04:15:30.962Z,2.77
2018-03-03T04:17:58.318Z,2.80
2018-03-03T04:20:25.702Z,2.93
2018-03-03T04:22:53.050Z,2.90
2018-03-03T04:25:20.405Z,2.60
2018-03-03T04:27:47.751Z,2.70
2018-03-03T04:30:15.086Z,2.90
2018-03-03T04:32:42.419Z,2.57
2018-03-03T04:35:09.789Z,2.50
2018-03-03T04:37:37.143Z,2.30
2018-03-03T04:40:04.525Z,2.50
2018-03-03T04:42:31.857Z,2.30
2018-03-03T04:44:59.186Z,2.20
2018-03-03T04:47:26.522Z,2.27
2018-03-03T04:49:53.862Z,2.10
2018-03-03T04:52:21.216Z,2.10
2018-03-03T04:54:48.581Z,2.30
2018-03-03T04:57:15.964Z,1.83
2018-03-03T04:59:43.313Z,2.20
2018-03-03T05:02:10.655Z,2.10
2018-03-03T05:04:38.025Z,1.93
2018-03-03T05:07:05.358Z,2.23
2018-03-03T05:09:32.687Z,1.77
2018-03-03T05:12:00.023Z,1.90
2018-03-03T05:14:27.362Z,2.00
2018-03-03T05:16:54.697Z,2.10
2018-03-03T05:19:22.102Z,1.93
